Tucson, AZ

3:18 PM MST on May 04, 2015 (GMT -0700)
Tucson International | | Change Station
CLOSE
Current Station
Airport
Location: Tucson,
Elevation: 2556 ft
Nearby Weather Stations

Elev 2556 ft 32.13 °N, 110.96 °W | Updated 25 minutes ago

Partly Cloudy
Partly Cloudy
79 °F
Feels Like 79 °F
N
12
Wind Variable Wind from West
Gusts 21 mph

Today
High -- | Low -- °F
--% Chance of Precip.
Yesterday
High -- | Low -- °F
Precip. -- in
5:35 AM 7:06 PM
Full, 99% visible
Pressure 29.73 in
Visibility 10.0 miles
Clouds Clear
Dew Point 45 °F
Humidity 30%
Rainfall 0.00 in
Snow Depth Not available.
UV 8 out of 12
Pollen 5.10 out of 12
Air Quality Not available.
Flu Activity Local Activity
METAR KTUS 042153Z 27010G18KT 10SM CLR 26/07 A2985 RMK AO2 SLP066 T02610072

More Conditions Fewer Conditions

Pressure 29.73 in
Visibility 10.0 miles
Clouds Clear
Dew Point 45 °F
Humidity 30%
Rainfall 0.00 in
Snow Depth Not available.
UV 8 out of 12
Pollen 5.10 out of 12
Air Quality Not available.
Flu Activity Local Activity
METAR KTUS 042153Z 27010G18KT 10SM CLR 26/07 A2985 RMK AO2 SLP066 T02610072

More Conditions Fewer Conditions

Nepal has a long way to go to dig out and rebuild from a devastating earthquake. We have teamed up with several charities and organizations to make contributing to the relief effort as easy as possible.
How you can help: Portlight Strategies | Red Cross
Nowcast | as of 2:28 PM MST on May 4, 2015

Showers and thunderstorms in southern Pinal and northeast Pima counties will track north at 15 mph...impacting portions of Interstate 10 north of Marana as well as highways 77 and 79. These storms have the potential for gusty winds up to 40 mph...frequent lightning...and brief heavy rainfall up to a third inch through 4 PM. Small hail around a half inch will be possible with the strongest storms.

×

10-Day Weather Forecast

Almanac

Astronomy

May. 04, 2015 Rise Set
Actual Time
Civil Twilight
Nautical Twilight
Astronomical Twilight
Moon
Length of Visible Light
Length of Day
Tomorrow will be .
, % of the Moon is Illuminated

Today's Extremes

State Highs State Lows

Community

WunderPhotos

Upload Photos

1,818,714 photos uploaded!

WunderBlogs® & News

Nearby

Air Quality

  Air Quality AQ Index Pollutant
Not available.

Snow Depth

Station Depth Elevation

Earthquake Activity

City Distance Mag. Time & Date
Minimum magnitude displayed is 2.5.

Coastal Water Temperatures

Place Temperature

Stations

Nearby Weather Stations

Station Location Temp. Windchill Dew Point Humidity Wind Precip. Elev Updated Type